sensor_id;sensor_type;location;lat;lon;timestamp;P1;durP1;ratioP1;P2;durP2;ratioP2
22812;SDS011;11573;51.334;3.244;2023-07-22T00:00:49;33.13;;;17.83;;
22812;SDS011;11573;51.334;3.244;2023-07-22T00:03:16;32.17;;;17.33;;
22812;SDS011;11573;51.334;3.244;2023-07-22T00:05:43;30.08;;;15.70;;
22812;SDS011;11573;51.334;3.244;2023-07-22T00:08:10;30.45;;;16.60;;
22812;SDS011;11573;51.334;3.244;2023-07-22T00:10:41;29.40;;;16.45;;
22812;SDS011;11573;51.334;3.244;2023-07-22T00:13:09;31.88;;;15.45;;
22812;SDS011;11573;51.334;3.244;2023-07-22T00:15:36;28.80;;;15.70;;
22812;SDS011;11573;51.334;3.244;2023-07-22T00:18:03;32.28;;;16.85;;
22812;SDS011;11573;51.334;3.244;2023-07-22T00:20:30;34.20;;;15.88;;
22812;SDS011;11573;51.334;3.244;2023-07-22T00:22:57;36.05;;;17.73;;
22812;SDS011;11573;51.334;3.244;2023-07-22T00:25:24;30.02;;;17.05;;
22812;SDS011;11573;51.334;3.244;2023-07-22T00:27:51;30.27;;;16.73;;
22812;SDS011;11573;51.334;3.244;2023-07-22T00:30:18;40.70;;;17.95;;
22812;SDS011;11573;51.334;3.244;2023-07-22T00:32:45;30.95;;;16.65;;
22812;SDS011;11573;51.334;3.244;2023-07-22T00:35:12;34.20;;;17.75;;
22812;SDS011;11573;51.334;3.244;2023-07-22T00:37:39;34.45;;;16.95;;
22812;SDS011;11573;51.334;3.244;2023-07-22T00:40:06;37.78;;;16.85;;
22812;SDS011;11573;51.334;3.244;2023-07-22T00:42:39;29.27;;;16.70;;
22812;SDS011;11573;51.334;3.244;2023-07-22T00:45:06;32.97;;;17.83;;
22812;SDS011;11573;51.334;3.244;2023-07-22T00:47:35;33.00;;;17.83;;
22812;SDS011;11573;51.334;3.244;2023-07-22T00:50:03;34.13;;;18.25;;
22812;SDS011;11573;51.334;3.244;2023-07-22T00:52:35;37.47;;;18.05;;
22812;SDS011;11573;51.334;3.244;2023-07-22T00:55:04;31.70;;;18.75;;
22812;SDS011;11573;51.334;3.244;2023-07-22T00:57:32;33.38;;;17.83;;
22812;SDS011;11573;51.334;3.244;2023-07-22T00:59:59;39.03;;;19.63;;
22812;SDS011;11573;51.334;3.244;2023-07-22T01:02:26;34.28;;;18.17;;
22812;SDS011;11573;51.334;3.244;2023-07-22T01:04:53;38.17;;;20.10;;
22812;SDS011;11573;51.334;3.244;2023-07-22T01:07:20;39.58;;;19.77;;
22812;SDS011;11573;51.334;3.244;2023-07-22T01:09:48;32.63;;;18.55;;
22812;SDS011;11573;51.334;3.244;2023-07-22T01:12:15;30.83;;;17.85;;
22812;SDS011;11573;51.334;3.244;2023-07-22T01:14:42;38.35;;;18.38;;
22812;SDS011;11573;51.334;3.244;2023-07-22T01:17:09;32.58;;;17.52;;
22812;SDS011;11573;51.334;3.244;2023-07-22T01:19:37;33.75;;;18.75;;
22812;SDS011;11573;51.334;3.244;2023-07-22T01:22:05;37.58;;;18.25;;
22812;SDS011;11573;51.334;3.244;2023-07-22T01:24:37;37.42;;;17.05;;
22812;SDS011;11573;51.334;3.244;2023-07-22T01:27:05;32.30;;;17.08;;
22812;SDS011;11573;51.334;3.244;2023-07-22T01:29:34;34.90;;;18.08;;
22812;SDS011;11573;51.334;3.244;2023-07-22T01:32:02;32.28;;;17.52;;
22812;SDS011;11573;51.334;3.244;2023-07-22T01:34:29;37.95;;;18.05;;
22812;SDS011;11573;51.334;3.244;2023-07-22T01:36:58;36.28;;;16.38;;
22812;SDS011;11573;51.334;3.244;2023-07-22T01:39:26;34.47;;;16.55;;
22812;SDS011;11573;51.334;3.244;2023-07-22T01:41:54;33.95;;;17.88;;
22812;SDS011;11573;51.334;3.244;2023-07-22T01:44:21;36.20;;;16.88;;
22812;SDS011;11573;51.334;3.244;2023-07-22T01:46:48;35.75;;;17.45;;
22812;SDS011;11573;51.334;3.244;2023-07-22T01:49:15;32.53;;;17.17;;
22812;SDS011;11573;51.334;3.244;2023-07-22T01:51:43;31.85;;;17.55;;
22812;SDS011;11573;51.334;3.244;2023-07-22T01:54:10;35.70;;;16.77;;
22812;SDS011;11573;51.334;3.244;2023-07-22T01:56:37;35.10;;;17.20;;
22812;SDS011;11573;51.334;3.244;2023-07-22T01:59:05;38.55;;;18.05;;
22812;SDS011;11573;51.334;3.244;2023-07-22T02:01:32;40.67;;;18.95;;
22812;SDS011;11573;51.334;3.244;2023-07-22T02:04:00;31.25;;;18.08;;
22812;SDS011;11573;51.334;3.244;2023-07-22T02:06:27;30.50;;;18.80;;
22812;SDS011;11573;51.334;3.244;2023-07-22T02:08:56;35.65;;;18.65;;
22812;SDS011;11573;51.334;3.244;2023-07-22T02:11:23;38.72;;;19.30;;
22812;SDS011;11573;51.334;3.244;2023-07-22T02:13:50;39.95;;;19.30;;
22812;SDS011;11573;51.334;3.244;2023-07-22T02:16:17;41.38;;;19.70;;
22812;SDS011;11573;51.334;3.244;2023-07-22T02:18:45;43.83;;;18.88;;
22812;SDS011;11573;51.334;3.244;2023-07-22T02:21:12;39.47;;;19.33;;
22812;SDS011;11573;51.334;3.244;2023-07-22T02:23:40;42.20;;;18.92;;
22812;SDS011;11573;51.334;3.244;2023-07-22T02:26:07;42.67;;;19.45;;
22812;SDS011;11573;51.334;3.244;2023-07-22T02:28:34;38.38;;;18.40;;
22812;SDS011;11573;51.334;3.244;2023-07-22T02:31:02;35.55;;;17.90;;
22812;SDS011;11573;51.334;3.244;2023-07-22T02:33:34;36.05;;;18.00;;
22812;SDS011;11573;51.334;3.244;2023-07-22T02:36:01;36.85;;;18.20;;
22812;SDS011;11573;51.334;3.244;2023-07-22T02:38:28;39.17;;;19.58;;
22812;SDS011;11573;51.334;3.244;2023-07-22T02:41:01;40.05;;;18.95;;
22812;SDS011;11573;51.334;3.244;2023-07-22T02:43:29;36.78;;;18.42;;
22812;SDS011;11573;51.334;3.244;2023-07-22T02:45:56;39.50;;;20.08;;
22812;SDS011;11573;51.334;3.244;2023-07-22T02:48:23;42.33;;;19.65;;
22812;SDS011;11573;51.334;3.244;2023-07-22T02:50:50;44.15;;;20.75;;
22812;SDS011;11573;51.334;3.244;2023-07-22T02:53:17;46.55;;;20.83;;
22812;SDS011;11573;51.334;3.244;2023-07-22T02:55:45;41.67;;;19.30;;
22812;SDS011;11573;51.334;3.244;2023-07-22T02:58:12;45.90;;;20.15;;
22812;SDS011;11573;51.334;3.244;2023-07-22T03:00:39;37.97;;;20.23;;
22812;SDS011;11573;51.334;3.244;2023-07-22T03:03:06;42.80;;;20.13;;
22812;SDS011;11573;51.334;3.244;2023-07-22T03:05:34;44.50;;;20.85;;
22812;SDS011;11573;51.334;3.244;2023-07-22T03:08:01;53.33;;;21.00;;
22812;SDS011;11573;51.334;3.244;2023-07-22T03:10:29;45.35;;;21.35;;
22812;SDS011;11573;51.334;3.244;2023-07-22T03:12:56;43.40;;;21.08;;
22812;SDS011;11573;51.334;3.244;2023-07-22T03:15:23;45.03;;;21.13;;
22812;SDS011;11573;51.334;3.244;2023-07-22T03:17:53;41.75;;;19.67;;
22812;SDS011;11573;51.334;3.244;2023-07-22T03:20:22;43.17;;;20.45;;
22812;SDS011;11573;51.334;3.244;2023-07-22T03:22:51;51.10;;;22.58;;
22812;SDS011;11573;51.334;3.244;2023-07-22T03:25:19;44.80;;;20.77;;
22812;SDS011;11573;51.334;3.244;2023-07-22T03:27:46;39.13;;;20.80;;
22812;SDS011;11573;51.334;3.244;2023-07-22T03:30:14;38.55;;;20.13;;
22812;SDS011;11573;51.334;3.244;2023-07-22T03:32:43;49.72;;;21.50;;
22812;SDS011;11573;51.334;3.244;2023-07-22T03:35:14;50.47;;;19.75;;
22812;SDS011;11573;51.334;3.244;2023-07-22T03:37:42;38.15;;;20.17;;
22812;SDS011;11573;51.334;3.244;2023-07-22T03:40:09;41.65;;;19.75;;
22812;SDS011;11573;51.334;3.244;2023-07-22T03:42:40;45.13;;;19.98;;
22812;SDS011;11573;51.334;3.244;2023-07-22T03:45:07;45.13;;;20.90;;
22812;SDS011;11573;51.334;3.244;2023-07-22T03:47:37;35.13;;;18.60;;
22812;SDS011;11573;51.334;3.244;2023-07-22T03:50:06;43.58;;;19.48;;
22812;SDS011;11573;51.334;3.244;2023-07-22T03:52:33;40.25;;;19.45;;
22812;SDS011;11573;51.334;3.244;2023-07-22T03:55:00;42.60;;;19.65;;
22812;SDS011;11573;51.334;3.244;2023-07-22T03:57:28;41.13;;;18.77;;
22812;SDS011;11573;51.334;3.244;2023-07-22T03:59:55;41.67;;;19.25;;
22812;SDS011;11573;51.334;3.244;2023-07-22T04:02:23;37.58;;;17.73;;
22812;SDS011;11573;51.334;3.244;2023-07-22T04:04:54;40.08;;;18.42;;
22812;SDS011;11573;51.334;3.244;2023-07-22T04:07:22;43.55;;;17.98;;
22812;SDS011;11573;51.334;3.244;2023-07-22T04:09:49;47.78;;;19.40;;
22812;SDS011;11573;51.334;3.244;2023-07-22T04:12:16;43.20;;;19.17;;
22812;SDS011;11573;51.334;3.244;2023-07-22T04:14:43;43.78;;;19.35;;
22812;SDS011;11573;51.334;3.244;2023-07-22T04:17:10;39.85;;;18.45;;
22812;SDS011;11573;51.334;3.244;2023-07-22T04:19:37;30.65;;;17.50;;
22812;SDS011;11573;51.334;3.244;2023-07-22T04:22:04;37.78;;;17.33;;
22812;SDS011;11573;51.334;3.244;2023-07-22T04:24:33;41.08;;;17.70;;
22812;SDS011;11573;51.334;3.244;2023-07-22T04:27:00;39.83;;;15.70;;
22812;SDS011;11573;51.334;3.244;2023-07-22T04:29:28;33.85;;;16.05;;
22812;SDS011;11573;51.334;3.244;2023-07-22T04:31:59;41.03;;;17.08;;
22812;SDS011;11573;51.334;3.244;2023-07-22T04:34:30;35.65;;;16.33;;
22812;SDS011;11573;51.334;3.244;2023-07-22T04:36:58;35.95;;;16.13;;
22812;SDS011;11573;51.334;3.244;2023-07-22T04:39:25;32.78;;;15.60;;
22812;SDS011;11573;51.334;3.244;2023-07-22T04:41:52;35.47;;;16.30;;
22812;SDS011;11573;51.334;3.244;2023-07-22T04:44:19;32.60;;;15.90;;
22812;SDS011;11573;51.334;3.244;2023-07-22T04:46:46;44.83;;;15.43;;
22812;SDS011;11573;51.334;3.244;2023-07-22T04:49:14;32.17;;;14.93;;
22812;SDS011;11573;51.334;3.244;2023-07-22T04:51:47;30.45;;;14.40;;
22812;SDS011;11573;51.334;3.244;2023-07-22T04:54:14;31.45;;;14.40;;
22812;SDS011;11573;51.334;3.244;2023-07-22T04:56:42;24.35;;;13.23;;
22812;SDS011;11573;51.334;3.244;2023-07-22T04:59:09;22.15;;;11.98;;
22812;SDS011;11573;51.334;3.244;2023-07-22T05:01:36;22.55;;;12.65;;
22812;SDS011;11573;51.334;3.244;2023-07-22T05:04:03;29.02;;;12.98;;
22812;SDS011;11573;51.334;3.244;2023-07-22T05:06:31;27.90;;;12.60;;
22812;SDS011;11573;51.334;3.244;2023-07-22T05:08:59;31.65;;;11.38;;
22812;SDS011;11573;51.334;3.244;2023-07-22T05:11:26;33.92;;;11.85;;
22812;SDS011;11573;51.334;3.244;2023-07-22T05:13:53;24.67;;;12.52;;
22812;SDS011;11573;51.334;3.244;2023-07-22T05:16:20;24.40;;;12.18;;
22812;SDS011;11573;51.334;3.244;2023-07-22T05:18:48;25.38;;;12.40;;
22812;SDS011;11573;51.334;3.244;2023-07-22T05:21:15;22.15;;;10.57;;
22812;SDS011;11573;51.334;3.244;2023-07-22T05:23:42;24.75;;;11.45;;
22812;SDS011;11573;51.334;3.244;2023-07-22T05:26:09;28.25;;;12.13;;
22812;SDS011;11573;51.334;3.244;2023-07-22T05:28:36;27.02;;;11.88;;
22812;SDS011;11573;51.334;3.244;2023-07-22T05:31:03;25.08;;;11.80;;
22812;SDS011;11573;51.334;3.244;2023-07-22T05:33:31;25.95;;;11.43;;
22812;SDS011;11573;51.334;3.244;2023-07-22T05:35:58;24.73;;;11.35;;
22812;SDS011;11573;51.334;3.244;2023-07-22T05:38:26;37.58;;;11.48;;
22812;SDS011;11573;51.334;3.244;2023-07-22T05:40:53;26.75;;;11.55;;
22812;SDS011;11573;51.334;3.244;2023-07-22T05:43:21;23.55;;;11.20;;
22812;SDS011;11573;51.334;3.244;2023-07-22T05:45:48;28.95;;;11.77;;
22812;SDS011;11573;51.334;3.244;2023-07-22T05:48:15;23.67;;;11.48;;
22812;SDS011;11573;51.334;3.244;2023-07-22T05:50:42;22.40;;;10.75;;
22812;SDS011;11573;51.334;3.244;2023-07-22T05:53:09;19.48;;;9.85;;
22812;SDS011;11573;51.334;3.244;2023-07-22T05:55:37;23.38;;;10.45;;
22812;SDS011;11573;51.334;3.244;2023-07-22T05:58:04;23.92;;;10.02;;
22812;SDS011;11573;51.334;3.244;2023-07-22T06:00:32;25.13;;;10.23;;
22812;SDS011;11573;51.334;3.244;2023-07-22T06:03:00;22.35;;;11.48;;
22812;SDS011;11573;51.334;3.244;2023-07-22T06:05:27;23.73;;;11.10;;
22812;SDS011;11573;51.334;3.244;2023-07-22T06:07:55;21.00;;;9.93;;
22812;SDS011;11573;51.334;3.244;2023-07-22T06:10:23;20.58;;;9.88;;
22812;SDS011;11573;51.334;3.244;2023-07-22T06:12:50;21.63;;;9.63;;
22812;SDS011;11573;51.334;3.244;2023-07-22T06:15:18;17.55;;;9.23;;
22812;SDS011;11573;51.334;3.244;2023-07-22T06:17:45;23.50;;;10.55;;
22812;SDS011;11573;51.334;3.244;2023-07-22T06:20:12;25.75;;;9.70;;
22812;SDS011;11573;51.334;3.244;2023-07-22T06:22:39;19.38;;;9.25;;
22812;SDS011;11573;51.334;3.244;2023-07-22T06:25:06;19.02;;;9.77;;
22812;SDS011;11573;51.334;3.244;2023-07-22T06:27:34;25.77;;;9.35;;
22812;SDS011;11573;51.334;3.244;2023-07-22T06:30:02;15.70;;;7.82;;
22812;SDS011;11573;51.334;3.244;2023-07-22T06:32:29;18.58;;;7.93;;
22812;SDS011;11573;51.334;3.244;2023-07-22T06:34:57;21.40;;;8.60;;
22812;SDS011;11573;51.334;3.244;2023-07-22T06:37:25;17.90;;;8.20;;
22812;SDS011;11573;51.334;3.244;2023-07-22T06:39:52;21.48;;;8.63;;
22812;SDS011;11573;51.334;3.244;2023-07-22T06:42:19;16.65;;;8.55;;
22812;SDS011;11573;51.334;3.244;2023-07-22T06:44:47;17.50;;;8.55;;
22812;SDS011;11573;51.334;3.244;2023-07-22T06:47:14;23.63;;;8.65;;
22812;SDS011;11573;51.334;3.244;2023-07-22T06:49:41;19.52;;;8.07;;
22812;SDS011;11573;51.334;3.244;2023-07-22T06:52:12;23.63;;;8.52;;
22812;SDS011;11573;51.334;3.244;2023-07-22T06:54:40;20.33;;;8.25;;
22812;SDS011;11573;51.334;3.244;2023-07-22T06:57:07;21.23;;;8.35;;
22812;SDS011;11573;51.334;3.244;2023-07-22T06:59:34;18.27;;;8.40;;
22812;SDS011;11573;51.334;3.244;2023-07-22T07:02:02;21.80;;;8.23;;
22812;SDS011;11573;51.334;3.244;2023-07-22T07:04:31;18.15;;;7.05;;
22812;SDS011;11573;51.334;3.244;2023-07-22T07:06:58;12.68;;;6.78;;
22812;SDS011;11573;51.334;3.244;2023-07-22T07:09:26;21.80;;;7.68;;
22812;SDS011;11573;51.334;3.244;2023-07-22T07:11:53;19.85;;;6.70;;
22812;SDS011;11573;51.334;3.244;2023-07-22T07:14:23;17.23;;;7.22;;
22812;SDS011;11573;51.334;3.244;2023-07-22T07:16:54;18.63;;;7.28;;
22812;SDS011;11573;51.334;3.244;2023-07-22T07:19:22;14.32;;;6.63;;
22812;SDS011;11573;51.334;3.244;2023-07-22T07:21:49;16.55;;;7.07;;
22812;SDS011;11573;51.334;3.244;2023-07-22T07:24:16;15.75;;;6.72;;
22812;SDS011;11573;51.334;3.244;2023-07-22T07:26:43;15.45;;;6.55;;
22812;SDS011;11573;51.334;3.244;2023-07-22T07:29:10;18.48;;;7.38;;
22812;SDS011;11573;51.334;3.244;2023-07-22T07:31:39;14.23;;;6.20;;
22812;SDS011;11573;51.334;3.244;2023-07-22T07:34:06;16.67;;;6.63;;
22812;SDS011;11573;51.334;3.244;2023-07-22T07:36:33;17.92;;;6.50;;
22812;SDS011;11573;51.334;3.244;2023-07-22T07:39:00;14.32;;;5.63;;
22812;SDS011;11573;51.334;3.244;2023-07-22T07:41:27;16.95;;;5.78;;
22812;SDS011;11573;51.334;3.244;2023-07-22T07:43:54;13.80;;;5.47;;
22812;SDS011;11573;51.334;3.244;2023-07-22T07:46:25;11.82;;;5.15;;
22812;SDS011;11573;51.334;3.244;2023-07-22T07:48:59;15.48;;;5.40;;
22812;SDS011;11573;51.334;3.244;2023-07-22T07:51:28;15.68;;;5.45;;
22812;SDS011;11573;51.334;3.244;2023-07-22T07:53:56;16.30;;;5.93;;
22812;SDS011;11573;51.334;3.244;2023-07-22T07:56:25;10.00;;;4.57;;
22812;SDS011;11573;51.334;3.244;2023-07-22T07:58:53;12.60;;;5.13;;
22812;SDS011;11573;51.334;3.244;2023-07-22T08:01:20;9.52;;;4.57;;
22812;SDS011;11573;51.334;3.244;2023-07-22T08:03:48;11.93;;;4.65;;
22812;SDS011;11573;51.334;3.244;2023-07-22T08:06:15;10.57;;;4.68;;
22812;SDS011;11573;51.334;3.244;2023-07-22T08:08:45;10.45;;;4.15;;
22812;SDS011;11573;51.334;3.244;2023-07-22T08:11:13;10.10;;;4.32;;
22812;SDS011;11573;51.334;3.244;2023-07-22T08:13:42;9.10;;;3.80;;
22812;SDS011;11573;51.334;3.244;2023-07-22T08:16:11;10.38;;;3.25;;
22812;SDS011;11573;51.334;3.244;2023-07-22T08:18:39;6.13;;;3.13;;
22812;SDS011;11573;51.334;3.244;2023-07-22T08:21:07;8.48;;;3.25;;
22812;SDS011;11573;51.334;3.244;2023-07-22T08:23:35;5.47;;;2.95;;
22812;SDS011;11573;51.334;3.244;2023-07-22T08:26:04;9.02;;;3.60;;
22812;SDS011;11573;51.334;3.244;2023-07-22T08:28:33;7.50;;;3.20;;
22812;SDS011;11573;51.334;3.244;2023-07-22T08:31:00;4.18;;;2.50;;
22812;SDS011;11573;51.334;3.244;2023-07-22T08:33:28;6.57;;;2.85;;
22812;SDS011;11573;51.334;3.244;2023-07-22T08:36:07;7.95;;;3.00;;
22812;SDS011;11573;51.334;3.244;2023-07-22T08:38:35;6.07;;;3.47;;
22812;SDS011;11573;51.334;3.244;2023-07-22T08:41:02;8.30;;;3.00;;
22812;SDS011;11573;51.334;3.244;2023-07-22T08:43:29;7.75;;;3.10;;
22812;SDS011;11573;51.334;3.244;2023-07-22T08:46:01;7.65;;;3.35;;
22812;SDS011;11573;51.334;3.244;2023-07-22T08:48:31;8.80;;;3.20;;
22812;SDS011;11573;51.334;3.244;2023-07-22T08:51:04;11.10;;;3.45;;
22812;SDS011;11573;51.334;3.244;2023-07-22T08:53:36;8.35;;;2.90;;
22812;SDS011;11573;51.334;3.244;2023-07-22T08:56:04;6.05;;;2.97;;
22812;SDS011;11573;51.334;3.244;2023-07-22T08:58:31;9.45;;;3.50;;
22812;SDS011;11573;51.334;3.244;2023-07-22T09:01:00;6.68;;;3.03;;
22812;SDS011;11573;51.334;3.244;2023-07-22T09:03:28;6.10;;;2.97;;
22812;SDS011;11573;51.334;3.244;2023-07-22T09:05:55;7.03;;;2.95;;
22812;SDS011;11573;51.334;3.244;2023-07-22T09:08:23;8.25;;;2.70;;
22812;SDS011;11573;51.334;3.244;2023-07-22T09:10:50;6.53;;;2.70;;
22812;SDS011;11573;51.334;3.244;2023-07-22T09:13:17;8.10;;;2.92;;
22812;SDS011;11573;51.334;3.244;2023-07-22T09:15:45;6.70;;;2.60;;
22812;SDS011;11573;51.334;3.244;2023-07-22T09:18:14;7.82;;;2.72;;
22812;SDS011;11573;51.334;3.244;2023-07-22T09:20:42;8.02;;;2.80;;
22812;SDS011;11573;51.334;3.244;2023-07-22T09:23:09;6.13;;;2.70;;
22812;SDS011;11573;51.334;3.244;2023-07-22T09:25:40;6.97;;;2.50;;
22812;SDS011;11573;51.334;3.244;2023-07-22T09:28:09;5.43;;;2.28;;
22812;SDS011;11573;51.334;3.244;2023-07-22T09:30:37;9.73;;;2.50;;
22812;SDS011;11573;51.334;3.244;2023-07-22T09:33:07;5.80;;;2.30;;
22812;SDS011;11573;51.334;3.244;2023-07-22T09:35:47;5.60;;;2.25;;
22812;SDS011;11573;51.334;3.244;2023-07-22T09:38:23;7.32;;;2.42;;
22812;SDS011;11573;51.334;3.244;2023-07-22T09:40:52;4.68;;;2.17;;
22812;SDS011;11573;51.334;3.244;2023-07-22T09:43:20;6.93;;;2.33;;
22812;SDS011;11573;51.334;3.244;2023-07-22T09:45:49;8.63;;;2.97;;
22812;SDS011;11573;51.334;3.244;2023-07-22T09:48:16;5.72;;;2.58;;
22812;SDS011;11573;51.334;3.244;2023-07-22T09:50:44;8.25;;;2.78;;
22812;SDS011;11573;51.334;3.244;2023-07-22T09:53:14;6.40;;;3.17;;
22812;SDS011;11573;51.334;3.244;2023-07-22T09:55:42;6.55;;;2.92;;
22812;SDS011;11573;51.334;3.244;2023-07-22T09:58:10;7.65;;;3.17;;
22812;SDS011;11573;51.334;3.244;2023-07-22T10:00:40;7.88;;;3.53;;
22812;SDS011;11573;51.334;3.244;2023-07-22T10:03:13;8.52;;;3.60;;
22812;SDS011;11573;51.334;3.244;2023-07-22T10:05:42;9.15;;;3.35;;
22812;SDS011;11573;51.334;3.244;2023-07-22T10:08:14;7.75;;;3.65;;
22812;SDS011;11573;51.334;3.244;2023-07-22T10:10:44;10.32;;;3.67;;
22812;SDS011;11573;51.334;3.244;2023-07-22T10:13:12;8.50;;;3.30;;
22812;SDS011;11573;51.334;3.244;2023-07-22T10:15:39;9.30;;;3.25;;
22812;SDS011;11573;51.334;3.244;2023-07-22T10:18:06;10.63;;;3.65;;
22812;SDS011;11573;51.334;3.244;2023-07-22T10:20:37;7.03;;;3.55;;
22812;SDS011;11573;51.334;3.244;2023-07-22T10:23:06;7.68;;;4.03;;
22812;SDS011;11573;51.334;3.244;2023-07-22T10:25:37;7.00;;;3.42;;
22812;SDS011;11573;51.334;3.244;2023-07-22T10:28:06;9.82;;;3.72;;
22812;SDS011;11573;51.334;3.244;2023-07-22T10:30:34;6.03;;;2.90;;
22812;SDS011;11573;51.334;3.244;2023-07-22T10:33:02;3.88;;;2.70;;
22812;SDS011;11573;51.334;3.244;2023-07-22T10:38:08;11.20;;;3.53;;
22812;SDS011;11573;51.334;3.244;2023-07-22T10:43:16;6.88;;;3.10;;
22812;SDS011;11573;51.334;3.244;2023-07-22T10:45:55;6.78;;;2.78;;
22812;SDS011;11573;51.334;3.244;2023-07-22T10:48:25;6.47;;;2.90;;
22812;SDS011;11573;51.334;3.244;2023-07-22T10:50:58;6.95;;;3.15;;
22812;SDS011;11573;51.334;3.244;2023-07-22T10:53:31;6.65;;;2.80;;
22812;SDS011;11573;51.334;3.244;2023-07-22T10:58:33;5.50;;;2.60;;
22812;SDS011;11573;51.334;3.244;2023-07-22T11:06:33;5.72;;;2.88;;
22812;SDS011;11573;51.334;3.244;2023-07-22T11:09:01;6.30;;;2.70;;
22812;SDS011;11573;51.334;3.244;2023-07-22T11:11:38;7.20;;;2.60;;
22812;SDS011;11573;51.334;3.244;2023-07-22T11:14:15;5.18;;;3.10;;
22812;SDS011;11573;51.334;3.244;2023-07-22T11:16:43;8.07;;;3.05;;
22812;SDS011;11573;51.334;3.244;2023-07-22T11:19:15;6.95;;;2.70;;
22812;SDS011;11573;51.334;3.244;2023-07-22T11:21:44;5.07;;;2.88;;
22812;SDS011;11573;51.334;3.244;2023-07-22T11:24:14;8.30;;;3.20;;
22812;SDS011;11573;51.334;3.244;2023-07-22T11:26:42;6.90;;;3.10;;
22812;SDS011;11573;51.334;3.244;2023-07-22T11:29:12;7.72;;;3.33;;
22812;SDS011;11573;51.334;3.244;2023-07-22T11:31:41;9.43;;;3.83;;
22812;SDS011;11573;51.334;3.244;2023-07-22T11:34:16;5.72;;;3.45;;
22812;SDS011;11573;51.334;3.244;2023-07-22T11:36:50;5.95;;;3.42;;
22812;SDS011;11573;51.334;3.244;2023-07-22T11:39:19;7.03;;;3.95;;
22812;SDS011;11573;51.334;3.244;2023-07-22T11:41:48;7.13;;;3.85;;
22812;SDS011;11573;51.334;3.244;2023-07-22T11:44:16;8.65;;;4.00;;
22812;SDS011;11573;51.334;3.244;2023-07-22T11:49:25;6.47;;;3.95;;
22812;SDS011;11573;51.334;3.244;2023-07-22T11:52:01;5.45;;;2.88;;
22812;SDS011;11573;51.334;3.244;2023-07-22T11:54:31;6.95;;;3.20;;
22812;SDS011;11573;51.334;3.244;2023-07-22T11:57:10;8.18;;;3.50;;
22812;SDS011;11573;51.334;3.244;2023-07-22T11:59:44;8.45;;;3.42;;
22812;SDS011;11573;51.334;3.244;2023-07-22T12:02:13;6.75;;;2.67;;
22812;SDS011;11573;51.334;3.244;2023-07-22T12:04:43;7.40;;;3.13;;
22812;SDS011;11573;51.334;3.244;2023-07-22T12:07:26;8.15;;;3.08;;
22812;SDS011;11573;51.334;3.244;2023-07-22T12:09:59;6.05;;;3.10;;
22812;SDS011;11573;51.334;3.244;2023-07-22T12:12:34;5.40;;;2.80;;
22812;SDS011;11573;51.334;3.244;2023-07-22T12:20:16;7.78;;;2.72;;
22812;SDS011;11573;51.334;3.244;2023-07-22T12:22:44;9.18;;;2.45;;
22812;SDS011;11573;51.334;3.244;2023-07-22T12:25:11;6.80;;;2.53;;
22812;SDS011;11573;51.334;3.244;2023-07-22T12:27:38;6.18;;;2.30;;
22812;SDS011;11573;51.334;3.244;2023-07-22T12:30:06;11.60;;;2.72;;
22812;SDS011;11573;51.334;3.244;2023-07-22T12:32:34;10.15;;;3.00;;
22812;SDS011;11573;51.334;3.244;2023-07-22T12:35:01;7.13;;;2.85;;
22812;SDS011;11573;51.334;3.244;2023-07-22T12:37:30;9.98;;;2.83;;
22812;SDS011;11573;51.334;3.244;2023-07-22T12:39:57;8.50;;;2.75;;
22812;SDS011;11573;51.334;3.244;2023-07-22T12:42:24;9.18;;;3.00;;
22812;SDS011;11573;51.334;3.244;2023-07-22T12:44:51;12.52;;;3.30;;
22812;SDS011;11573;51.334;3.244;2023-07-22T12:47:19;9.05;;;2.63;;
22812;SDS011;11573;51.334;3.244;2023-07-22T12:49:46;12.38;;;3.15;;
22812;SDS011;11573;51.334;3.244;2023-07-22T12:52:14;11.88;;;3.40;;
22812;SDS011;11573;51.334;3.244;2023-07-22T12:54:41;8.75;;;2.58;;
22812;SDS011;11573;51.334;3.244;2023-07-22T12:57:08;9.90;;;2.63;;
22812;SDS011;11573;51.334;3.244;2023-07-22T12:59:36;11.32;;;2.90;;
22812;SDS011;11573;51.334;3.244;2023-07-22T13:02:03;7.97;;;2.53;;
22812;SDS011;11573;51.334;3.244;2023-07-22T13:04:31;9.35;;;2.63;;
22812;SDS011;11573;51.334;3.244;2023-07-22T13:06:58;8.30;;;3.20;;
22812;SDS011;11573;51.334;3.244;2023-07-22T13:09:25;9.90;;;3.17;;
22812;SDS011;11573;51.334;3.244;2023-07-22T13:11:52;10.07;;;2.58;;
22812;SDS011;11573;51.334;3.244;2023-07-22T13:14:20;10.13;;;2.85;;
22812;SDS011;11573;51.334;3.244;2023-07-22T13:16:47;7.20;;;2.40;;
22812;SDS011;11573;51.334;3.244;2023-07-22T13:19:14;9.90;;;3.25;;
22812;SDS011;11573;51.334;3.244;2023-07-22T13:21:42;8.00;;;2.63;;
22812;SDS011;11573;51.334;3.244;2023-07-22T13:24:09;9.48;;;3.15;;
22812;SDS011;11573;51.334;3.244;2023-07-22T13:26:37;6.18;;;2.10;;
22812;SDS011;11573;51.334;3.244;2023-07-22T13:29:06;7.97;;;2.60;;
22812;SDS011;11573;51.334;3.244;2023-07-22T13:31:35;9.95;;;2.75;;
22812;SDS011;11573;51.334;3.244;2023-07-22T13:34:03;10.50;;;2.63;;
22812;SDS011;11573;51.334;3.244;2023-07-22T13:36:30;12.10;;;2.83;;
22812;SDS011;11573;51.334;3.244;2023-07-22T13:38:57;7.65;;;1.98;;
22812;SDS011;11573;51.334;3.244;2023-07-22T13:41:25;13.93;;;2.58;;
22812;SDS011;11573;51.334;3.244;2023-07-22T13:43:53;9.18;;;2.65;;
22812;SDS011;11573;51.334;3.244;2023-07-22T13:46:20;8.07;;;2.40;;
22812;SDS011;11573;51.334;3.244;2023-07-22T13:48:48;8.25;;;2.30;;
22812;SDS011;11573;51.334;3.244;2023-07-22T13:51:15;11.82;;;2.38;;
22812;SDS011;11573;51.334;3.244;2023-07-22T13:53:42;8.20;;;2.30;;
22812;SDS011;11573;51.334;3.244;2023-07-22T13:56:10;7.50;;;2.60;;
22812;SDS011;11573;51.334;3.244;2023-07-22T13:58:37;12.15;;;2.72;;
22812;SDS011;11573;51.334;3.244;2023-07-22T14:01:05;9.95;;;2.72;;
22812;SDS011;11573;51.334;3.244;2023-07-22T14:03:32;15.13;;;2.50;;
22812;SDS011;11573;51.334;3.244;2023-07-22T14:06:00;9.10;;;2.33;;
22812;SDS011;11573;51.334;3.244;2023-07-22T14:08:27;8.90;;;2.72;;
22812;SDS011;11573;51.334;3.244;2023-07-22T14:10:54;10.80;;;2.88;;
22812;SDS011;11573;51.334;3.244;2023-07-22T14:13:22;6.68;;;2.55;;
22812;SDS011;11573;51.334;3.244;2023-07-22T14:15:49;7.55;;;2.42;;
22812;SDS011;11573;51.334;3.244;2023-07-22T14:18:17;4.65;;;2.17;;
22812;SDS011;11573;51.334;3.244;2023-07-22T14:20:45;6.95;;;2.20;;
22812;SDS011;11573;51.334;3.244;2023-07-22T14:23:13;6.78;;;2.28;;
22812;SDS011;11573;51.334;3.244;2023-07-22T14:25:41;9.60;;;2.60;;
22812;SDS011;11573;51.334;3.244;2023-07-22T14:28:08;8.15;;;2.35;;
22812;SDS011;11573;51.334;3.244;2023-07-22T14:30:35;4.57;;;2.00;;
22812;SDS011;11573;51.334;3.244;2023-07-22T14:33:04;12.73;;;2.65;;
22812;SDS011;11573;51.334;3.244;2023-07-22T14:35:31;6.47;;;2.08;;
22812;SDS011;11573;51.334;3.244;2023-07-22T14:37:59;8.00;;;2.50;;
22812;SDS011;11573;51.334;3.244;2023-07-22T14:40:27;10.57;;;3.47;;
22812;SDS011;11573;51.334;3.244;2023-07-22T14:42:55;6.63;;;2.40;;
22812;SDS011;11573;51.334;3.244;2023-07-22T14:45:22;9.95;;;2.47;;
22812;SDS011;11573;51.334;3.244;2023-07-22T14:47:49;11.18;;;2.55;;
22812;SDS011;11573;51.334;3.244;2023-07-22T14:50:17;6.95;;;2.30;;
22812;SDS011;11573;51.334;3.244;2023-07-22T14:52:44;6.03;;;2.30;;
22812;SDS011;11573;51.334;3.244;2023-07-22T14:55:11;5.32;;;2.45;;
22812;SDS011;11573;51.334;3.244;2023-07-22T14:57:39;6.00;;;2.40;;
22812;SDS011;11573;51.334;3.244;2023-07-22T15:00:06;6.78;;;2.40;;